Time;durP1;ratioP1;P1;durP2;ratioP2;P2;SDS_P1;SDS_P2;PMS_P1;PMS_P2;Temp;Humidity;BMP_temperature;BMP_pressure;BME280_temperature;BME280_humidity;BME280_pressure;Samples;Min_cycle;Max_cycle;Signal;HPM_P1;HPM_P2
2021/06/15 00:00:35;;;;;;;6.47;1.58;;;;;;;15.52;76.61;102138.38;5133602;27;20042;-55
2021/06/15 00:03:03;;;;;;;3.13;0.70;;;;;;;15.49;76.38;102141.78;5133223;27;20523;-53
2021/06/15 00:05:31;;;;;;;3.47;0.70;;;;;;;15.47;76.33;102146.88;5132819;27;20058;-53
2021/06/15 00:07:59;;;;;;;5.22;0.90;;;;;;;15.44;76.25;102141.00;5133298;27;20416;-50
2021/06/15 00:10:29;;;;;;;4.90;0.73;;;;;;;15.40;76.18;102146.38;5133501;27;20122;-51
2021/06/15 00:12:57;;;;;;;3.55;0.90;;;;;;;15.36;76.26;102141.69;5133011;27;20062;-55
2021/06/15 00:15:26;;;;;;;4.43;0.70;;;;;;;15.34;76.05;102144.78;5133275;27;20088;-52
2021/06/15 00:17:54;;;;;;;5.97;0.93;;;;;;;15.31;76.17;102151.00;5133019;27;20073;-48
2021/06/15 00:20:23;;;;;;;4.97;0.70;;;;;;;15.31;76.05;102159.44;5132363;27;20109;-48
2021/06/15 00:22:51;;;;;;;6.07;0.88;;;;;;;15.30;76.20;102163.41;5133135;27;20488;-52
2021/06/15 00:25:19;;;;;;;5.07;0.73;;;;;;;15.30;76.00;102168.19;5118549;27;20075;-51
2021/06/15 00:27:49;;;;;;;3.08;0.60;;;;;;;15.27;75.85;102168.78;5130126;27;20150;-59
2021/06/15 00:30:18;;;;;;;4.82;0.93;;;;;;;15.25;76.16;102166.25;5132998;27;20206;-57
2021/06/15 00:32:48;;;;;;;3.20;0.63;;;;;;;15.25;76.10;102162.63;5116065;27;20043;-55
2021/06/15 00:35:16;;;;;;;5.28;0.82;;;;;;;15.23;75.95;102171.34;5132676;27;20563;-53
2021/06/15 00:37:44;;;;;;;4.47;0.88;;;;;;;15.23;75.86;102176.97;5133014;27;20039;-48
2021/06/15 00:40:12;;;;;;;7.25;1.50;;;;;;;15.23;76.13;102184.56;5132066;27;20067;-52
2021/06/15 00:42:40;;;;;;;7.05;1.00;;;;;;;15.23;75.83;102179.78;5132766;27;20039;-50
2021/06/15 00:45:12;;;;;;;7.07;1.00;;;;;;;15.22;75.93;102177.28;5132326;27;20039;-60
2021/06/15 00:47:47;;;;;;;7.20;1.20;;;;;;;15.20;76.22;102182.34;5132256;27;20058;-56
2021/06/15 00:50:17;;;;;;;6.35;1.38;;;;;;;15.19;76.05;102189.94;5128903;27;20059;-50
2021/06/15 00:52:45;;;;;;;4.28;0.90;;;;;;;15.22;76.09;102180.91;5121198;27;20043;-53
2021/06/15 00:55:14;;;;;;;8.63;1.50;;;;;;;15.25;76.03;102182.31;5131431;27;20039;-58
2021/06/15 00:57:43;;;;;;;4.32;0.80;;;;;;;15.26;76.31;102187.63;5132459;27;20043;-50
2021/06/15 01:00:13;;;;;;;4.60;0.80;;;;;;;15.29;76.17;102195.47;5115987;27;20461;-52
2021/06/15 01:02:42;;;;;;;6.85;1.10;;;;;;;15.30;76.33;102190.69;5112622;27;20051;-50
2021/06/15 01:05:13;;;;;;;6.07;1.15;;;;;;;15.32;76.29;102188.41;5115121;27;20047;-52
2021/06/15 01:07:58;;;;;;;8.60;1.30;;;;;;;15.31;76.18;102184.78;5110194;28;20067;-54
2021/06/15 01:10:40;;;;;;;8.40;1.35;;;;;;;15.30;76.16;102185.06;5128165;27;20065;-51
2021/06/15 01:13:19;;;;;;;6.40;0.93;;;;;;;15.31;76.33;102181.94;5131736;27;20039;-53
2021/06/15 01:15:58;;;;;;;6.47;0.95;;;;;;;15.31;76.33;102181.94;5131424;27;20493;-50
2021/06/15 01:18:30;;;;;;;4.75;0.98;;;;;;;15.31;76.19;102184.78;5132359;27;20441;-59
2021/06/15 01:21:01;;;;;;;6.75;1.00;;;;;;;15.32;76.12;102177.16;5131433;27;20063;-52
2021/06/15 01:24:05;;;;;;;6.97;1.00;;;;;;;15.29;75.93;102178.59;5118956;27;20061;-53
2021/06/15 01:27:06;;;;;;;6.35;1.20;;;;;;;15.23;76.25;102182.59;5123261;27;20047;-56
2021/06/15 01:29:38;;;;;;;5.55;1.02;;;;;;;15.17;76.31;102178.19;5131727;27;20039;-53
2021/06/15 01:32:10;;;;;;;4.95;0.93;;;;;;;15.18;76.38;102179.88;5132265;27;20059;-50
2021/06/15 01:34:42;;;;;;;5.72;1.02;;;;;;;15.21;76.62;102175.59;5118898;28;20062;-52
2021/06/15 01:37:16;;;;;;;5.88;1.30;;;;;;;15.23;76.66;102182.59;5114173;28;20491;-52
2021/06/15 01:39:50;;;;;;;4.90;1.02;;;;;;;15.23;76.62;102174.16;5131924;27;20126;-49
2021/06/15 01:42:28;;;;;;;3.45;1.13;;;;;;;15.22;76.59;102189.34;5132050;27;20537;-53
2021/06/15 01:45:03;;;;;;;6.00;1.05;;;;;;;15.24;76.65;102186.25;5119176;28;20453;-53
2021/06/15 01:47:32;;;;;;;6.40;1.08;;;;;;;15.24;76.63;102183.44;5114592;28;20081;-52
2021/06/15 01:50:04;;;;;;;5.13;1.13;;;;;;;15.26;76.48;102181.16;5119420;28;20046;-51
2021/06/15 01:52:35;;;;;;;5.63;1.30;;;;;;;15.24;76.42;102181.47;5131651;28;20047;-52
2021/06/15 01:55:06;;;;;;;9.75;1.38;;;;;;;15.23;76.25;102179.78;5131830;27;20104;-52
2021/06/15 01:57:56;;;;;;;4.35;1.00;;;;;;;15.20;76.35;102186.00;5130412;28;20044;-49
2021/06/15 02:00:27;;;;;;;6.38;1.10;;;;;;;15.22;76.30;102192.16;5119622;27;20083;-50
2021/06/15 02:03:01;;;;;;;5.78;1.50;;;;;;;15.23;76.32;102191.03;5118892;28;20027;-53
2021/06/15 02:05:36;;;;;;;7.47;1.10;;;;;;;15.25;76.12;102194.38;5130984;28;20126;-54
2021/06/15 02:08:07;;;;;;;6.25;1.08;;;;;;;15.25;76.06;102194.38;5131672;27;20045;-53
2021/06/15 02:10:41;;;;;;;5.07;1.10;;;;;;;15.24;76.04;102195.53;5119268;28;20097;-56
2021/06/15 02:13:40;;;;;;;5.75;1.10;;;;;;;15.24;76.21;102203.97;5113168;28;20450;-52
2021/06/15 02:16:30;;;;;;;4.65;0.90;;;;;;;15.21;76.12;102204.56;5131185;27;20051;-53
2021/06/15 02:19:19;;;;;;;8.13;1.13;;;;;;;15.20;76.12;102197.25;5131201;28;20054;-55
2021/06/15 02:21:54;;;;;;;7.10;1.33;;;;;;;15.20;75.93;102187.97;5114085;28;20072;-57
2021/06/15 02:24:27;;;;;;;8.32;1.40;;;;;;;15.18;75.80;102196.75;5117465;28;20047;-52
2021/06/15 02:26:56;;;;;;;5.40;1.35;;;;;;;15.18;75.63;102198.72;5127793;27;20103;-58
2021/06/15 02:29:24;;;;;;;6.38;1.20;;;;;;;15.18;75.67;102195.91;5121427;27;20055;-55
2021/06/15 02:31:58;;;;;;;5.82;1.10;;;;;;;15.15;75.41;102194.50;5125972;27;20047;-52
2021/06/15 02:34:29;;;;;;;8.15;1.50;;;;;;;15.11;75.39;102202.69;5122847;27;20466;-51
2021/06/15 02:37:04;;;;;;;6.22;1.73;;;;;;;15.10;75.11;102208.63;5132174;27;20084;-53
2021/06/15 02:39:34;;;;;;;7.03;1.30;;;;;;;15.08;75.05;102205.25;5134614;27;20092;-55
2021/06/15 02:42:08;;;;;;;8.15;1.20;;;;;;;15.04;75.03;102198.56;5135053;27;20047;-59
2021/06/15 02:44:40;;;;;;;5.20;1.00;;;;;;;15.00;74.90;102194.66;5117401;27;20500;-54
2021/06/15 02:47:15;;;;;;;4.88;0.90;;;;;;;14.97;74.91;102204.53;5115838;27;20039;-52
2021/06/15 02:49:49;;;;;;;4.90;1.25;;;;;;;14.97;74.92;102201.72;5119371;27;20103;-57
2021/06/15 02:52:24;;;;;;;7.82;1.20;;;;;;;14.96;75.06;102197.25;5122529;27;20058;-56
2021/06/15 02:54:58;;;;;;;6.82;1.13;;;;;;;14.97;74.84;102203.69;5134262;27;20043;-53
2021/06/15 02:57:27;;;;;;;4.38;0.80;;;;;;;14.94;74.80;102199.50;5134880;27;20050;-58
2021/06/15 02:59:57;;;;;;;7.82;1.45;;;;;;;14.93;74.88;102203.44;5117945;27;20035;-55
2021/06/15 03:02:27;;;;;;;6.00;0.98;;;;;;;14.92;74.77;102195.31;5134663;27;20114;-56
2021/06/15 03:04:56;;;;;;;8.52;1.10;;;;;;;14.88;74.75;102195.06;5117316;27;20143;-54
2021/06/15 03:07:24;;;;;;;4.07;1.00;;;;;;;14.86;74.80;102185.25;5121886;27;20043;-55
2021/06/15 03:09:55;;;;;;;5.75;0.98;;;;;;;14.83;74.64;102193.13;5130669;27;20043;-57
2021/06/15 03:12:32;;;;;;;7.90;1.20;;;;;;;14.81;74.75;102183.31;5134180;27;20050;-54
2021/06/15 03:15:04;;;;;;;6.15;0.90;;;;;;;14.81;74.59;102188.94;5132861;27;20070;-53
2021/06/15 03:17:36;;;;;;;6.15;1.15;;;;;;;14.77;74.64;102190.69;5121848;27;20470;-53
2021/06/15 03:20:08;;;;;;;6.35;0.88;;;;;;;14.74;74.77;102186.50;5133680;27;20477;-51
2021/06/15 03:22:59;;;;;;;7.65;0.95;;;;;;;14.72;74.87;102185.94;5124467;27;20043;-53
2021/06/15 03:25:33;;;;;;;5.90;0.95;;;;;;;14.71;74.76;102189.88;5130078;27;20115;-54
2021/06/15 03:28:08;;;;;;;9.15;1.80;;;;;;;14.67;74.77;102200.03;5133321;27;20039;-58
2021/06/15 03:30:39;;;;;;;5.85;0.90;;;;;;;14.65;74.83;102207.91;5134047;27;20079;-57
2021/06/15 03:33:10;;;;;;;4.10;0.82;;;;;;;14.64;74.70;102211.84;5134398;27;20050;-55
2021/06/15 03:35:43;;;;;;;6.78;1.38;;;;;;;14.62;74.82;102205.69;5132479;27;20050;-59
2021/06/15 03:38:16;;;;;;;4.07;0.93;;;;;;;14.59;74.90;102209.06;5123043;27;20035;-55
2021/06/15 03:40:48;;;;;;;6.60;1.20;;;;;;;14.56;74.98;102206.03;5133701;27;20049;-53
2021/06/15 03:43:17;;;;;;;3.72;0.90;;;;;;;14.49;74.85;102192.31;5133505;27;20031;-58
2021/06/15 03:45:48;;;;;;;5.10;1.55;;;;;;;14.47;74.94;102186.16;5133509;27;20081;-56
2021/06/15 03:48:20;;;;;;;6.50;1.10;;;;;;;14.45;74.89;102185.59;5134102;27;20076;-58
2021/06/15 03:50:51;;;;;;;4.78;1.10;;;;;;;14.42;75.06;102195.44;5132967;27;20472;-52
2021/06/15 03:53:21;;;;;;;4.03;1.25;;;;;;;14.41;75.06;102196.56;5134035;27;20039;-50
2021/06/15 03:55:51;;;;;;;6.25;1.08;;;;;;;14.40;74.87;102194.03;5133393;27;20155;-55
2021/06/15 03:58:20;;;;;;;5.75;1.17;;;;;;;14.36;74.93;102193.78;5133087;27;20104;-52
2021/06/15 04:00:50;;;;;;;4.65;1.23;;;;;;;14.38;75.06;102196.31;5133291;27;20096;-51
2021/06/15 04:03:19;;;;;;;4.05;1.10;;;;;;;14.37;75.16;102208.69;5132827;27;20484;-51
2021/06/15 04:05:48;;;;;;;6.60;1.45;;;;;;;14.35;75.08;102205.31;5133487;27;20047;-52
2021/06/15 04:08:18;;;;;;;5.35;0.90;;;;;;;14.30;75.10;102203.38;5133313;27;20046;-50
2021/06/15 04:10:50;;;;;;;4.75;1.20;;;;;;;14.29;75.29;102212.09;5132642;27;20054;-50
2021/06/15 04:13:21;;;;;;;3.88;1.00;;;;;;;14.25;75.14;102208.19;5133343;27;20051;-51
2021/06/15 04:15:49;;;;;;;3.58;1.02;;;;;;;14.23;75.48;102216.91;5133103;27;20087;-49
2021/06/15 04:18:23;;;;;;;5.85;0.90;;;;;;;14.21;75.62;102218.31;5131880;27;20138;-49
2021/06/15 04:20:54;;;;;;;5.15;0.98;;;;;;;14.18;75.66;102232.97;5122603;27;20434;-51
2021/06/15 04:23:29;;;;;;;5.28;1.20;;;;;;;14.17;76.00;102239.69;5133250;27;20400;-57
2021/06/15 04:25:57;;;;;;;4.57;0.88;;;;;;;14.12;75.85;102238.59;5132351;27;20068;-50
2021/06/15 04:28:25;;;;;;;6.97;1.20;;;;;;;14.08;76.13;102239.44;5132615;27;20074;-53
2021/06/15 04:30:55;;;;;;;5.95;1.30;;;;;;;14.04;76.19;102247.59;5132893;27;20086;-50
2021/06/15 04:33:29;;;;;;;6.40;1.40;;;;;;;14.00;76.26;102242.84;5132573;27;20174;-50
2021/06/15 04:36:02;;;;;;;5.68;1.20;;;;;;;13.94;76.41;102233.66;5132902;27;20043;-50
2021/06/15 04:38:38;;;;;;;5.35;1.25;;;;;;;13.89;76.61;102239.28;5132071;27;20043;-54
2021/06/15 04:41:09;;;;;;;6.55;1.10;;;;;;;13.86;76.55;102239.00;5132513;27;20068;-53
2021/06/15 04:43:38;;;;;;;4.40;1.20;;;;;;;13.82;76.77;102235.09;5132194;27;20047;-52
2021/06/15 04:46:14;;;;;;;5.15;1.30;;;;;;;13.80;76.79;102241.81;5132091;27;20135;-54
2021/06/15 04:48:47;;;;;;;6.72;1.17;;;;;;;13.79;77.05;102256.13;5121868;27;20107;-53
2021/06/15 04:51:20;;;;;;;6.78;1.30;;;;;;;13.75;77.07;102263.47;5132478;27;20050;-51
2021/06/15 04:53:49;;;;;;;5.72;1.20;;;;;;;13.73;77.12;102274.13;5121705;27;20111;-54
2021/06/15 04:56:19;;;;;;;8.20;1.38;;;;;;;13.73;77.33;102274.97;5132688;27;20139;-50
2021/06/15 04:58:48;;;;;;;6.53;1.20;;;;;;;13.73;77.43;102274.97;5132451;27;20074;-50
2021/06/15 05:01:17;;;;;;;9.40;1.60;;;;;;;13.77;77.52;102266.84;5131918;27;20134;-51
2021/06/15 05:03:50;;;;;;;5.45;1.10;;;;;;;13.77;77.48;102267.69;5129197;27;20560;-50
2021/06/15 05:06:22;;;;;;;9.85;1.52;;;;;;;13.82;77.54;102275.22;5132705;27;20437;-51
2021/06/15 05:08:54;;;;;;;6.68;1.25;;;;;;;13.85;77.76;102276.59;5131688;27;20126;-51
2021/06/15 05:11:23;;;;;;;9.53;1.27;;;;;;;13.91;77.75;102281.06;5132422;27;20522;-55
2021/06/15 05:13:54;;;;;;;7.30;1.60;;;;;;;13.96;77.56;102273.50;5131049;27;20565;-53
2021/06/15 05:16:24;;;;;;;6.80;1.30;;;;;;;14.03;77.52;102268.38;5132180;27;20138;-52
2021/06/15 05:18:54;;;;;;;6.03;1.10;;;;;;;14.11;77.39;102269.75;5131988;27;20051;-50
2021/06/15 05:21:23;;;;;;;6.05;1.35;;;;;;;14.18;77.38;102278.72;5131711;27;20047;-49
2021/06/15 05:23:57;;;;;;;6.45;1.05;;;;;;;14.25;77.28;102290.44;5124322;27;20067;-51
2021/06/15 05:26:25;;;;;;;6.38;1.17;;;;;;;14.33;76.99;102287.03;5129587;27;20453;-50
2021/06/15 05:28:53;;;;;;;6.22;1.40;;;;;;;14.41;76.54;102294.88;5131304;27;20035;-52
2021/06/15 05:31:21;;;;;;;7.47;1.17;;;;;;;14.51;75.95;102301.56;5131292;28;20043;-57
2021/06/15 05:33:49;;;;;;;5.20;1.00;;;;;;;14.60;75.64;102297.84;5131942;28;20047;-55
2021/06/15 05:36:18;;;;;;;7.50;1.35;;;;;;;14.70;75.10;102296.94;5131369;28;20092;-55
2021/06/15 05:38:46;;;;;;;5.47;1.20;;;;;;;14.79;74.77;102307.25;5131892;27;20047;-50
2021/06/15 05:41:14;;;;;;;5.80;1.30;;;;;;;14.91;74.19;102306.91;5131782;27;20054;-55
2021/06/15 05:43:42;;;;;;;8.77;1.23;;;;;;;15.04;73.61;102308.19;5130693;28;20039;-53
2021/06/15 05:46:10;;;;;;;7.20;1.10;;;;;;;15.21;73.27;102311.41;5131861;27;20039;-57
2021/06/15 05:48:38;;;;;;;5.80;1.20;;;;;;;15.39;72.88;102319.09;5131636;28;20051;-52
2021/06/15 05:51:06;;;;;;;6.90;1.10;;;;;;;15.62;72.50;102323.13;5131381;28;20116;-56
2021/06/15 05:53:35;;;;;;;6.40;1.20;;;;;;;15.82;71.59;102322.91;5131714;28;20054;-54
2021/06/15 05:56:03;;;;;;;7.25;1.35;;;;;;;16.06;71.10;102319.25;5131052;27;20079;-53
2021/06/15 05:58:31;;;;;;;7.25;1.30;;;;;;;16.28;70.54;102329.97;5131634;27;20043;-56
2021/06/15 06:00:59;;;;;;;8.13;1.60;;;;;;;16.48;69.44;102327.69;5135173;27;20154;-58
2021/06/15 06:03:33;;;;;;;7.45;1.48;;;;;;;16.67;68.30;102315.63;5135255;27;20062;-56
2021/06/15 06:08:48;;;;;;;8.13;1.50;;;;;;;17.05;67.12;102322.06;5135547;27;20035;-51
2021/06/15 06:11:16;;;;;;;8.70;1.40;;;;;;;17.28;66.41;102332.41;5134794;27;20096;-53
2021/06/15 06:13:46;;;;;;;7.13;1.25;;;;;;;17.50;65.72;102326.91;5134686;27;20047;-56
2021/06/15 06:16:14;;;;;;;8.30;1.02;;;;;;;17.70;64.85;102327.72;5135395;27;20040;-53
2021/06/15 06:18:42;;;;;;;10.70;1.77;;;;;;;17.88;63.92;102332.44;5134897;27;20061;-52
2021/06/15 06:21:11;;;;;;;8.63;1.30;;;;;;;18.04;63.10;102330.13;5134496;27;20055;-52
2021/06/15 06:23:40;;;;;;;5.40;1.20;;;;;;;18.17;62.51;102338.63;5124182;27;20047;-59
2021/06/15 06:26:09;;;;;;;6.53;1.48;;;;;;;18.31;61.53;102332.09;5134690;27;20059;-53
2021/06/15 06:28:37;;;;;;;8.55;1.38;;;;;;;18.43;60.66;102336.06;5135386;27;20047;-58
2021/06/15 06:31:05;;;;;;;6.68;1.58;;;;;;;18.54;60.29;102342.34;5134560;27;20047;-53
2021/06/15 06:33:36;;;;;;;7.13;1.40;;;;;;;18.73;60.38;102339.38;5131587;27;20061;-57
2021/06/15 06:36:04;;;;;;;8.75;1.60;;;;;;;18.87;59.04;102346.66;5135081;27;20499;-54
2021/06/15 06:38:32;;;;;;;7.03;1.55;;;;;;;18.96;58.41;102340.25;5134580;27;20046;-52
2021/06/15 06:41:00;;;;;;;5.70;1.10;;;;;;;19.08;58.40;102334.84;5135392;27;20031;-56
2021/06/15 06:43:29;;;;;;;6.68;1.30;;;;;;;19.21;56.83;102333.94;5135306;27;20070;-56
2021/06/15 06:45:57;;;;;;;5.30;1.30;;;;;;;19.36;56.50;102342.06;5134361;27;20455;-52
2021/06/15 06:48:25;;;;;;;5.88;1.25;;;;;;;19.50;56.45;102351.34;5134984;27;20070;-58
2021/06/15 06:50:53;;;;;;;7.45;1.30;;;;;;;19.67;56.21;102346.94;5124701;27;20447;-51
2021/06/15 06:53:21;;;;;;;5.97;1.20;;;;;;;19.82;55.16;102343.69;5122139;27;20577;-52
2021/06/15 06:55:49;;;;;;;7.90;1.33;;;;;;;19.93;54.83;102347.91;5132980;27;20444;-50
2021/06/15 06:58:17;;;;;;;5.63;1.30;;;;;;;20.04;54.51;102356.94;5134661;27;20066;-57
2021/06/15 07:00:46;;;;;;;9.48;1.63;;;;;;;20.14;52.91;102360.34;5116779;27;20036;-54
2021/06/15 07:03:14;;;;;;;5.85;1.30;;;;;;;20.16;52.96;102362.84;5134826;27;20039;-56
2021/06/15 07:05:42;;;;;;;7.07;1.60;;;;;;;20.25;52.76;102352.34;5134821;27;20039;-52
2021/06/15 07:08:09;;;;;;;4.80;1.25;;;;;;;20.37;52.41;102346.09;5133880;27;20504;-51
2021/06/15 07:10:37;;;;;;;8.95;1.27;;;;;;;20.46;52.18;102341.28;5134200;27;20133;-56
2021/06/15 07:13:05;;;;;;;5.40;1.20;;;;;;;20.58;51.76;102347.94;5133624;27;20039;-54
2021/06/15 07:15:33;;;;;;;5.10;1.17;;;;;;;20.71;52.32;102349.00;5134677;27;20074;-52
2021/06/15 07:18:02;;;;;;;5.03;1.10;;;;;;;20.84;51.54;102348.00;5134302;27;20100;-57
2021/06/15 07:20:30;;;;;;;5.05;1.27;;;;;;;20.92;50.75;102355.69;5133468;27;20503;-51
2021/06/15 07:22:58;;;;;;;6.97;1.20;;;;;;;20.96;50.43;102350.19;5134267;27;20456;-55
2021/06/15 07:25:27;;;;;;;5.18;1.00;;;;;;;21.08;50.19;102338.16;5134228;27;20047;-57
2021/06/15 07:27:55;;;;;;;7.13;1.40;;;;;;;21.20;49.91;102333.47;5133459;27;20461;-56
2021/06/15 07:30:23;;;;;;;6.50;1.20;;;;;;;21.28;49.95;102344.00;5134450;27;20043;-55
2021/06/15 07:32:56;;;;;;;6.22;1.38;;;;;;;21.13;50.05;102349.34;5134144;27;20058;-52
2021/06/15 07:35:25;;;;;;;6.35;1.30;;;;;;;20.99;50.44;102343.81;5133508;27;20531;-56
2021/06/15 07:37:53;;;;;;;5.47;1.10;;;;;;;21.07;51.11;102353.50;5133482;27;20127;-57
2021/06/15 07:40:23;;;;;;;6.30;1.17;;;;;;;21.21;51.52;102345.69;5133833;27;20047;-54
2021/06/15 07:42:52;;;;;;;5.40;1.20;;;;;;;21.24;51.53;102357.19;5133482;27;20084;-53
2021/06/15 07:45:21;;;;;;;3.90;0.88;;;;;;;21.38;51.73;102354.19;5133777;27;20047;-56
2021/06/15 07:47:49;;;;;;;5.47;1.20;;;;;;;21.50;50.18;102340.13;5133615;27;20503;-58
2021/06/15 07:50:18;;;;;;;7.97;1.63;;;;;;;21.42;49.80;102346.66;5133119;27;20051;-53
2021/06/15 07:52:47;;;;;;;6.07;0.90;;;;;;;21.39;49.67;102344.47;5133422;27;20503;-54
2021/06/15 07:55:17;;;;;;;5.95;1.13;;;;;;;21.45;49.69;102339.47;5133815;27;20096;-56
2021/06/15 07:57:48;;;;;;;5.55;1.17;;;;;;;21.49;49.31;102346.16;5133564;27;20449;-54
2021/06/15 08:00:17;;;;;;;4.50;1.00;;;;;;;21.56;48.91;102347.31;5133359;27;20105;-58
2021/06/15 08:02:47;;;;;;;7.30;1.20;;;;;;;21.58;48.78;102350.63;5133058;27;20150;-53
2021/06/15 08:05:15;;;;;;;5.32;1.00;;;;;;;21.46;49.02;102353.34;5123218;27;20481;-55
2021/06/15 08:07:44;;;;;;;8.43;1.70;;;;;;;21.22;48.91;102353.03;5133568;27;20092;-53
2021/06/15 08:10:15;;;;;;;5.10;0.88;;;;;;;21.18;49.35;102360.53;5132495;27;20131;-51
2021/06/15 08:12:43;;;;;;;6.40;1.00;;;;;;;21.12;49.69;102364.69;5133395;27;20461;-55
2021/06/15 08:15:12;;;;;;;5.57;0.90;;;;;;;20.93;48.95;102360.19;5133007;27;20050;-52
2021/06/15 08:17:40;;;;;;;5.32;1.15;;;;;;;20.88;49.31;102365.19;5132575;27;20047;-57
2021/06/15 08:20:09;;;;;;;4.97;0.93;;;;;;;20.98;48.08;102371.34;5132248;27;20625;-55
2021/06/15 08:22:37;;;;;;;6.03;1.10;;;;;;;21.10;47.88;102361.38;5121648;27;20138;-57
2021/06/15 08:25:08;;;;;;;4.68;0.90;;;;;;;21.22;47.69;102355.88;5129329;27;20054;-57
2021/06/15 08:27:37;;;;;;;7.57;1.20;;;;;;;21.38;47.88;102351.34;5130261;27;20151;-53
2021/06/15 08:30:07;;;;;;;4.78;1.10;;;;;;;21.54;47.38;102349.66;5132041;27;20039;-54
2021/06/15 08:32:36;;;;;;;4.63;1.00;;;;;;;21.61;47.15;102349.94;5132231;27;20480;-58
2021/06/15 08:35:05;;;;;;;4.82;1.00;;;;;;;21.72;47.84;102352.44;5132800;27;20043;-53
2021/06/15 08:37:34;;;;;;;5.32;1.17;;;;;;;21.86;47.74;102356.72;5131199;27;20039;-55
2021/06/15 08:40:04;;;;;;;4.78;1.17;;;;;;;22.02;47.02;102359.88;5132780;27;20031;-56
2021/06/15 08:42:36;;;;;;;4.55;1.30;;;;;;;22.14;47.36;102364.84;5132128;27;20122;-55
2021/06/15 08:45:07;;;;;;;7.63;1.50;;;;;;;22.24;46.98;102356.75;5132390;27;20061;-52
2021/06/15 08:47:38;;;;;;;5.47;1.10;;;;;;;22.35;46.52;102351.53;5132623;27;20079;-50
2021/06/15 08:50:08;;;;;;;4.88;1.20;;;;;;;22.41;46.40;102343.63;5132137;27;20077;-57
2021/06/15 08:52:36;;;;;;;3.45;0.88;;;;;;;22.49;45.99;102346.41;5131890;27;20051;-55
2021/06/15 08:55:06;;;;;;;6.53;1.40;;;;;;;22.54;46.43;102351.91;5132168;27;20047;-56
2021/06/15 08:57:36;;;;;;;6.72;1.23;;;;;;;22.63;46.25;102354.69;5132041;27;20099;-58
2021/06/15 09:00:14;;;;;;;7.82;1.50;;;;;;;22.73;46.36;102351.44;5131536;27;20031;-57
2021/06/15 09:02:50;;;;;;;3.78;1.00;;;;;;;22.79;45.71;102358.63;5132262;27;20077;-57
2021/06/15 09:05:32;;;;;;;6.38;1.45;;;;;;;22.79;45.83;102354.94;5119646;27;20062;-59
2021/06/15 09:08:09;;;;;;;4.47;1.30;;;;;;;22.80;45.70;102351.75;5132138;27;20039;-56
2021/06/15 09:13:37;;;;;;;3.92;1.08;;;;;;;23.07;45.57;102341.81;5129872;27;20131;-51
2021/06/15 09:16:33;;;;;;;5.03;1.20;;;;;;;23.19;45.05;102344.72;5132067;27;20396;-54
2021/06/15 09:19:21;;;;;;;4.90;0.70;;;;;;;23.30;45.13;102348.81;5128432;27;20531;-52
2021/06/15 09:21:57;;;;;;;4.05;0.95;;;;;;;23.44;45.48;102345.66;5132008;27;20042;-59
2021/06/15 09:24:43;;;;;;;4.10;1.00;;;;;;;23.54;44.98;102345.25;5132246;27;20071;-57
2021/06/15 09:27:36;;;;;;;6.28;1.20;;;;;;;23.60;45.16;102346.69;5129802;27;20062;-56
2021/06/15 09:30:12;;;;;;;5.47;1.15;;;;;;;23.51;44.88;102351.63;5131967;27;20088;-51
2021/06/15 09:32:44;;;;;;;3.83;0.93;;;;;;;23.32;45.43;102342.78;5127281;28;20052;-51
2021/06/15 09:35:15;;;;;;;4.50;1.00;;;;;;;23.14;45.66;102355.50;5131326;27;20454;-54
2021/06/15 09:37:49;;;;;;;4.50;1.13;;;;;;;22.92;45.57;102360.38;5131217;28;20067;-57
2021/06/15 09:40:23;;;;;;;3.63;0.98;;;;;;;22.88;45.39;102355.72;5111868;28;20442;-56
2021/06/15 09:43:02;;;;;;;5.80;1.00;;;;;;;22.81;45.67;102353.41;5118640;28;20055;-56
2021/06/15 09:45:36;;;;;;;5.60;1.10;;;;;;;22.88;45.60;102352.88;5121908;28;20039;-55
2021/06/15 09:48:28;;;;;;;8.30;1.10;;;;;;;23.05;45.87;102357.59;5127780;28;20051;-56
2021/06/15 09:51:08;;;;;;;3.45;0.90;;;;;;;23.27;45.36;102348.69;5131689;27;20043;-56
2021/06/15 09:53:58;;;;;;;6.13;1.00;;;;;;;23.38;44.50;102347.88;5131306;27;20518;-54
2021/06/15 09:56:26;;;;;;;4.47;0.75;;;;;;;23.47;44.49;102347.81;5130772;28;20039;-54
2021/06/15 09:58:56;;;;;;;4.90;1.00;;;;;;;23.61;44.62;102341.81;5114686;28;20090;-56
2021/06/15 10:01:32;;;;;;;6.15;1.20;;;;;;;23.84;44.39;102347.91;5131345;28;20044;-53
2021/06/15 10:04:12;;;;;;;5.97;1.17;;;;;;;23.96;43.55;102348.78;5114752;28;20560;-57
2021/06/15 10:06:42;;;;;;;4.57;0.95;;;;;;;24.02;43.64;102347.34;5131536;27;20077;-56
2021/06/15 10:09:10;;;;;;;5.60;1.05;;;;;;;23.86;43.82;102339.84;5130907;27;20096;-56
2021/06/15 10:11:39;;;;;;;3.72;1.00;;;;;;;23.58;43.84;102334.78;5119140;27;20120;-55
2021/06/15 10:14:07;;;;;;;6.00;1.10;;;;;;;23.59;44.28;102330.75;5131378;28;20039;-54
2021/06/15 10:16:35;;;;;;;5.82;1.58;;;;;;;23.78;44.41;102340.81;5130961;28;20096;-56
2021/06/15 10:19:03;;;;;;;4.43;1.10;;;;;;;23.73;43.89;102338.16;5131212;28;20123;-60
2021/06/15 10:21:34;;;;;;;6.82;1.25;;;;;;;23.73;44.12;102343.88;5131592;27;20075;-56
2021/06/15 10:24:04;;;;;;;5.00;1.00;;;;;;;23.83;44.12;102343.41;5130637;27;20036;-58
2021/06/15 10:26:32;;;;;;;4.07;1.30;;;;;;;23.91;43.92;102339.63;5130910;27;20427;-51
2021/06/15 10:29:01;;;;;;;7.43;1.27;;;;;;;24.08;43.81;102336.56;5130710;27;20134;-58
2021/06/15 10:31:30;;;;;;;5.70;1.55;;;;;;;24.30;43.81;102346.69;5120479;27;20104;-55
2021/06/15 10:33:59;;;;;;;5.68;1.30;;;;;;;24.56;43.23;102346.31;5126990;28;20043;-55
2021/06/15 10:36:39;;;;;;;5.50;1.17;;;;;;;24.81;41.93;102335.66;5131041;28;20039;-55
2021/06/15 10:39:12;;;;;;;7.45;1.40;;;;;;;24.89;41.74;102335.53;5130724;27;20403;-56
2021/06/15 10:41:40;;;;;;;4.68;0.90;;;;;;;24.97;41.74;102325.19;5130747;28;20407;-49
2021/06/15 10:44:11;;;;;;;5.50;1.10;;;;;;;24.70;41.34;102335.34;5130673;27;20146;-55
2021/06/15 10:46:40;;;;;;;5.47;1.20;;;;;;;24.36;42.38;102334.69;5131872;27;20047;-56
2021/06/15 10:49:12;;;;;;;5.15;1.10;;;;;;;24.13;42.72;102332.63;5134425;27;20043;-56
2021/06/15 10:51:55;;;;;;;6.40;1.33;;;;;;;23.87;42.84;102325.25;5134068;27;20487;-54
2021/06/15 10:54:44;;;;;;;4.50;1.35;;;;;;;23.73;43.71;102326.78;5134818;27;20122;-54
2021/06/15 10:57:27;;;;;;;6.40;0.85;;;;;;;23.72;43.52;102331.63;5133242;27;20484;-56
2021/06/15 11:00:00;;;;;;;5.68;1.15;;;;;;;23.87;43.90;102327.25;5133803;27;20116;-57
2021/06/15 11:02:31;;;;;;;6.97;1.25;;;;;;;24.14;43.07;102325.75;5134331;27;20066;-56
2021/06/15 11:05:00;;;;;;;4.90;1.17;;;;;;;24.13;43.14;102324.06;5134666;27;20051;-54
2021/06/15 11:07:41;;;;;;;5.97;1.08;;;;;;;24.11;42.77;102323.59;5133361;27;20134;-57
2021/06/15 11:10:15;;;;;;;4.90;1.10;;;;;;;23.87;43.25;102318.72;5134355;27;20047;-58
2021/06/15 11:12:56;;;;;;;5.15;1.10;;;;;;;23.76;43.71;102323.22;5102023;27;20066;-57
2021/06/15 11:15:37;;;;;;;5.35;1.38;;;;;;;23.58;44.40;102317.69;5105509;27;20066;-53
2021/06/15 11:18:21;;;;;;;5.47;1.50;;;;;;;23.44;44.50;102322.84;5124082;27;20494;-56
2021/06/15 11:20:52;;;;;;;6.43;1.70;;;;;;;23.32;45.26;102325.69;5130892;27;20304;-54
2021/06/15 11:23:29;;;;;;;7.97;1.40;;;;;;;23.27;45.18;102325.88;5134210;27;20104;-55
2021/06/15 11:26:04;;;;;;;5.72;1.35;;;;;;;23.27;44.97;102321.03;5120386;27;20043;-58
2021/06/15 11:28:45;;;;;;;7.88;1.55;;;;;;;23.13;45.08;102319.66;5133610;27;20058;-49
2021/06/15 11:31:35;;;;;;;4.50;1.10;;;;;;;23.07;45.33;102321.06;5133443;27;20050;-52
2021/06/15 11:34:14;;;;;;;6.95;1.10;;;;;;;23.12;45.41;102318.84;5114697;27;20126;-55
2021/06/15 11:36:47;;;;;;;7.35;1.00;;;;;;;23.23;45.66;102307.81;5133764;27;20084;-56
2021/06/15 11:39:38;;;;;;;8.55;1.35;;;;;;;23.36;44.63;102306.69;5123481;27;20063;-53
2021/06/15 11:42:19;;;;;;;6.13;1.30;;;;;;;23.54;45.12;102305.34;5130326;27;20035;-56
2021/06/15 11:44:53;;;;;;;4.25;1.08;;;;;;;23.57;44.98;102316.06;5133728;27;20289;-56
2021/06/15 11:47:25;;;;;;;4.72;1.10;;;;;;;23.48;45.65;102326.66;5133961;27;20043;-51
2021/06/15 11:50:14;;;;;;;5.05;1.20;;;;;;;23.24;44.40;102321.72;5133618;27;20043;-52
2021/06/15 11:52:44;;;;;;;4.57;1.10;;;;;;;23.05;45.63;102329.09;5133054;27;20112;-52